Time;durP1;ratioP1;P1;durP2;ratioP2;P2;SDS_P1;SDS_P2;PMS_P1;PMS_P2;Temp;Humidity;BMP_temperature;BMP_pressure;BME280_temperature;BME280_humidity;BME280_pressure;Samples;Min_cycle;Max_cycle;Signal;HPM_P1;HPM_P2
2020/12/15 00:01:53;;;;;;;;;16.25;12.00;;;;;;;;5023232;28;9686;-83
2020/12/15 00:04:20;;;;;;;;;19.00;17.25;;;;;;;;5031042;28;9822;-83
2020/12/15 00:06:47;;;;;;;;;12.75;12.75;;;;;;;;5027023;28;10006;-82
2020/12/15 00:09:15;;;;;;;;;13.25;9.00;;;;;;;;5027571;28;9798;-85
2020/12/15 00:11:42;;;;;;;;;13.50;10.25;;;;;;;;5027465;28;9943;-86
2020/12/15 00:14:09;;;;;;;;;13.75;13.75;;;;;;;;5031937;28;9891;-85
2020/12/15 00:16:36;;;;;;;;;11.00;11.00;;;;;;;;5028639;28;9816;-86
2020/12/15 00:19:04;;;;;;;;;11.75;11.25;;;;;;;;5029268;28;9899;-84
2020/12/15 00:21:31;;;;;;;;;10.00;10.00;;;;;;;;5015286;28;9906;-85
2020/12/15 00:23:59;;;;;;;;;9.75;9.75;;;;;;;;5030161;28;9734;-85
2020/12/15 00:26:27;;;;;;;;;10.25;10.25;;;;;;;;5025504;28;9997;-85
2020/12/15 00:28:54;;;;;;;;;12.50;11.75;;;;;;;;5028567;28;10648;-77
2020/12/15 00:31:21;;;;;;;;;10.25;10.25;;;;;;;;5024453;28;9854;-85
2020/12/15 00:33:48;;;;;;;;;12.00;12.00;;;;;;;;5024489;28;10043;-78
2020/12/15 00:36:18;;;;;;;;;13.00;10.75;;;;;;;;5024894;28;9793;-84
2020/12/15 00:38:45;;;;;;;;;13.50;13.00;;;;;;;;5027667;28;9821;-85
2020/12/15 00:41:12;;;;;;;;;12.25;8.75;;;;;;;;5035225;28;9713;-87
2020/12/15 00:43:40;;;;;;;;;12.25;9.50;;;;;;;;5028683;28;9683;-88
2020/12/15 00:46:07;;;;;;;;;10.25;10.25;;;;;;;;5031932;28;9598;-86
2020/12/15 00:48:34;;;;;;;;;8.25;8.25;;;;;;;;5032022;28;9715;-84
2020/12/15 00:51:00;;;;;;;;;10.00;10.00;;;;;;;;5025670;28;9720;-86
2020/12/15 00:53:27;;;;;;;;;16.00;14.00;;;;;;;;5024340;28;9724;-88
2020/12/15 00:55:54;;;;;;;;;12.75;12.75;;;;;;;;5027694;28;9588;-85
2020/12/15 00:58:21;;;;;;;;;12.25;12.00;;;;;;;;5028606;28;9789;-82
2020/12/15 01:00:49;;;;;;;;;16.00;9.25;;;;;;;;5028326;28;9604;-84
2020/12/15 01:03:16;;;;;;;;;10.50;10.50;;;;;;;;5026244;28;9641;-83
2020/12/15 01:05:42;;;;;;;;;9.25;9.25;;;;;;;;5022875;28;9567;-81
2020/12/15 01:08:09;;;;;;;;;7.75;7.75;;;;;;;;5023867;28;9653;-83
2020/12/15 01:10:36;;;;;;;;;10.50;10.00;;;;;;;;5037859;28;9553;-80
2020/12/15 01:13:03;;;;;;;;;8.50;8.50;;;;;;;;5019936;28;9642;-78
2020/12/15 01:15:30;;;;;;;;;14.75;13.00;;;;;;;;5025616;28;9840;-78
2020/12/15 01:17:58;;;;;;;;;8.75;8.75;;;;;;;;5028024;28;9841;-78
2020/12/15 01:20:25;;;;;;;;;10.50;9.00;;;;;;;;5023617;28;9771;-78
2020/12/15 01:22:52;;;;;;;;;14.75;10.75;;;;;;;;5028462;28;9577;-76
2020/12/15 01:25:19;;;;;;;;;7.00;7.00;;;;;;;;5028956;28;9736;-81
2020/12/15 01:27:46;;;;;;;;;11.25;8.75;;;;;;;;5025267;28;9675;-85
2020/12/15 01:30:12;;;;;;;;;9.00;7.25;;;;;;;;5008304;28;9623;-76
2020/12/15 01:32:39;;;;;;;;;12.00;11.50;;;;;;;;5021494;28;9627;-81
2020/12/15 01:35:07;;;;;;;;;9.75;8.00;;;;;;;;5025123;28;9757;-81
2020/12/15 01:37:34;;;;;;;;;9.00;9.00;;;;;;;;5024022;28;9684;-80
2020/12/15 01:40:01;;;;;;;;;9.50;9.00;;;;;;;;5028191;28;9733;-82
2020/12/15 01:42:28;;;;;;;;;9.00;9.00;;;;;;;;5025859;28;9850;-82
2020/12/15 01:44:55;;;;;;;;;8.50;8.50;;;;;;;;5033792;28;9797;-81
2020/12/15 01:47:22;;;;;;;;;13.25;11.75;;;;;;;;5024738;28;9500;-81
2020/12/15 01:49:49;;;;;;;;;4.00;4.00;;;;;;;;5031864;28;9576;-77
2020/12/15 01:52:18;;;;;;;;;14.00;13.50;;;;;;;;5028860;28;9553;-82
2020/12/15 01:54:45;;;;;;;;;11.50;9.50;;;;;;;;5031683;28;9708;-80
2020/12/15 01:57:12;;;;;;;;;7.00;7.00;;;;;;;;5031360;28;9659;-82
2020/12/15 01:59:39;;;;;;;;;9.25;7.75;;;;;;;;5029680;28;10352;-80
2020/12/15 02:02:05;;;;;;;;;9.50;9.50;;;;;;;;5042212;28;9515;-79
2020/12/15 02:04:32;;;;;;;;;8.00;8.00;;;;;;;;5044136;28;9568;-81
2020/12/15 02:06:59;;;;;;;;;10.00;8.00;;;;;;;;5043925;28;9638;-82
2020/12/15 02:09:28;;;;;;;;;11.25;9.50;;;;;;;;5048947;28;9639;-83
2020/12/15 02:11:54;;;;;;;;;9.50;9.50;;;;;;;;5051956;28;9475;-82
2020/12/15 02:14:22;;;;;;;;;9.00;8.00;;;;;;;;5052235;28;9545;-85
2020/12/15 02:16:50;;;;;;;;;8.75;8.75;;;;;;;;5052859;28;9741;-85
2020/12/15 02:19:18;;;;;;;;;9.25;7.25;;;;;;;;5043405;28;9700;-84
2020/12/15 02:21:50;;;;;;;;;8.25;8.25;;;;;;;;5046625;28;9685;-84
2020/12/15 02:24:17;;;;;;;;;7.75;7.75;;;;;;;;5049413;28;9624;-83
2020/12/15 02:26:44;;;;;;;;;9.75;8.00;;;;;;;;5052940;28;9580;-83
2020/12/15 02:29:11;;;;;;;;;9.00;9.00;;;;;;;;5042688;28;10297;-83
2020/12/15 02:31:38;;;;;;;;;12.00;9.00;;;;;;;;5036474;28;9537;-85
2020/12/15 02:34:06;;;;;;;;;10.00;8.00;;;;;;;;5024731;28;9550;-81
2020/12/15 02:36:33;;;;;;;;;11.25;9.00;;;;;;;;5026436;28;9504;-83
2020/12/15 02:39:06;;;;;;;;;10.50;8.50;;;;;;;;5022419;28;9583;-83
2020/12/15 02:41:33;;;;;;;;;13.00;10.25;;;;;;;;5028091;28;9507;-84
2020/12/15 02:44:00;;;;;;;;;9.00;9.00;;;;;;;;5023699;28;9590;-83
2020/12/15 02:46:27;;;;;;;;;12.75;12.75;;;;;;;;5036214;28;9489;-84
2020/12/15 02:48:54;;;;;;;;;10.25;10.25;;;;;;;;5029725;28;9595;-81
2020/12/15 02:51:21;;;;;;;;;11.00;9.00;;;;;;;;5031843;28;9409;-84
2020/12/15 02:53:48;;;;;;;;;12.00;12.00;;;;;;;;5034253;28;9568;-82
2020/12/15 02:56:20;;;;;;;;;8.25;8.25;;;;;;;;5027221;28;9549;-84
2020/12/15 02:58:47;;;;;;;;;13.75;12.75;;;;;;;;5028378;28;9630;-84
2020/12/15 03:01:14;;;;;;;;;9.50;9.50;;;;;;;;5031759;28;9579;-85
2020/12/15 03:03:41;;;;;;;;;10.25;10.25;;;;;;;;5028265;28;9488;-85
2020/12/15 03:06:08;;;;;;;;;9.25;9.25;;;;;;;;5027070;28;9583;-86
2020/12/15 03:08:35;;;;;;;;;7.25;7.25;;;;;;;;5026460;28;9535;-81
2020/12/15 03:11:03;;;;;;;;;7.75;7.75;;;;;;;;5027103;28;9639;-84
2020/12/15 03:13:31;;;;;;;;;15.00;13.00;;;;;;;;5025191;28;9668;-82
2020/12/15 03:15:58;;;;;;;;;10.75;10.25;;;;;;;;5027819;28;9571;-78
2020/12/15 03:18:25;;;;;;;;;12.50;9.25;;;;;;;;5037966;28;9566;-85
2020/12/15 03:20:52;;;;;;;;;10.25;10.25;;;;;;;;5026436;28;9649;-85
2020/12/15 03:23:21;;;;;;;;;10.25;10.25;;;;;;;;5025870;28;9636;-82
2020/12/15 03:25:52;;;;;;;;;11.00;10.00;;;;;;;;5025030;28;9498;-83
2020/12/15 03:28:19;;;;;;;;;14.50;12.75;;;;;;;;5026933;28;9558;-73
2020/12/15 03:30:47;;;;;;;;;13.00;9.75;;;;;;;;5026268;28;9526;-84
2020/12/15 03:33:14;;;;;;;;;11.00;11.00;;;;;;;;5026882;28;9579;-88
2020/12/15 03:35:41;;;;;;;;;13.00;13.00;;;;;;;;5025515;28;9506;-84
2020/12/15 03:38:08;;;;;;;;;10.25;10.25;;;;;;;;5026069;28;9691;-87
2020/12/15 03:40:35;;;;;;;;;12.75;9.00;;;;;;;;5028451;28;9460;-85
2020/12/15 03:43:02;;;;;;;;;12.75;10.50;;;;;;;;5029692;28;9555;-86
2020/12/15 03:45:30;;;;;;;;;9.00;9.00;;;;;;;;5027341;28;9606;-85
2020/12/15 03:47:57;;;;;;;;;9.67;8.00;;;;;;;;5025813;28;9411;-77
2020/12/15 03:50:24;;;;;;;;;9.00;9.00;;;;;;;;5024452;28;9490;-85
2020/12/15 03:52:51;;;;;;;;;9.25;7.50;;;;;;;;5023370;28;9528;-87
2020/12/15 03:55:21;;;;;;;;;12.75;12.75;;;;;;;;5026342;28;9454;-82
2020/12/15 03:57:49;;;;;;;;;9.00;7.50;;;;;;;;5026659;28;9678;-84
2020/12/15 04:00:16;;;;;;;;;7.00;7.00;;;;;;;;5025030;28;9440;-79
2020/12/15 04:02:42;;;;;;;;;8.25;8.25;;;;;;;;5026327;28;9482;-83
2020/12/15 04:05:10;;;;;;;;;11.75;8.00;;;;;;;;5024900;28;9603;-87
2020/12/15 04:07:37;;;;;;;;;8.75;8.00;;;;;;;;5025676;28;9502;-86
2020/12/15 04:10:05;;;;;;;;;6.00;6.00;;;;;;;;5025900;28;9572;-87
2020/12/15 04:12:32;;;;;;;;;7.75;7.75;;;;;;;;5026442;28;9497;-83
2020/12/15 04:14:59;;;;;;;;;19.25;16.75;;;;;;;;5025104;28;9568;-83
2020/12/15 04:17:26;;;;;;;;;9.25;8.00;;;;;;;;5023684;28;9628;-82
2020/12/15 04:19:53;;;;;;;;;8.50;8.50;;;;;;;;5025118;28;9638;-83
2020/12/15 04:22:21;;;;;;;;;12.00;7.25;;;;;;;;5026233;28;9594;-83
2020/12/15 04:24:47;;;;;;;;;9.00;9.00;;;;;;;;5034732;28;9539;-83
2020/12/15 04:27:14;;;;;;;;;9.75;9.75;;;;;;;;5025548;28;9494;-83
2020/12/15 04:29:41;;;;;;;;;9.25;9.25;;;;;;;;5027318;28;9675;-85
2020/12/15 04:32:08;;;;;;;;;12.75;11.50;;;;;;;;5023049;28;9493;-82
2020/12/15 04:34:35;;;;;;;;;11.33;9.67;;;;;;;;5025379;28;9421;-76
2020/12/15 04:37:01;;;;;;;;;12.33;12.33;;;;;;;;5023019;28;9490;-83
2020/12/15 04:39:29;;;;;;;;;14.25;11.50;;;;;;;;5017985;28;9517;-83
2020/12/15 04:41:56;;;;;;;;;13.67;10.33;;;;;;;;5028318;28;9486;-83
2020/12/15 04:44:24;;;;;;;;;9.75;9.00;;;;;;;;5024068;28;9371;-79
2020/12/15 04:46:56;;;;;;;;;6.50;4.50;;;;;;;;5025564;28;9421;-82
2020/12/15 04:49:28;;;;;;;;;9.50;9.50;;;;;;;;5020158;28;9425;-82
2020/12/15 04:52:01;;;;;;;;;13.00;10.25;;;;;;;;5024863;28;9497;-81
2020/12/15 04:54:34;;;;;;;;;13.75;11.75;;;;;;;;5022366;28;9645;-82
2020/12/15 04:57:02;;;;;;;;;12.50;11.50;;;;;;;;5025189;28;9498;-83
2020/12/15 04:59:31;;;;;;;;;9.50;9.50;;;;;;;;5025725;28;9630;-84
2020/12/15 05:01:59;;;;;;;;;12.00;8.50;;;;;;;;5022764;28;9573;-84
2020/12/15 05:04:27;;;;;;;;;13.75;11.75;;;;;;;;5023258;28;9627;-86
2020/12/15 05:06:54;;;;;;;;;12.50;11.75;;;;;;;;5023524;28;10322;-84
2020/12/15 05:09:28;;;;;;;;;13.75;11.75;;;;;;;;5023998;28;9559;-85
2020/12/15 05:11:57;;;;;;;;;11.50;11.50;;;;;;;;5024713;28;9589;-84
2020/12/15 05:14:24;;;;;;;;;12.75;12.75;;;;;;;;5022813;28;9632;-84
2020/12/15 05:16:51;;;;;;;;;15.25;15.25;;;;;;;;5030931;28;9783;-83
2020/12/15 05:19:18;;;;;;;;;14.75;12.75;;;;;;;;5023436;28;9637;-79
2020/12/15 05:21:56;;;;;;;;;10.75;9.75;;;;;;;;5022380;28;9563;-82
2020/12/15 05:24:27;;;;;;;;;14.75;14.00;;;;;;;;5025133;28;9564;-83
2020/12/15 05:26:56;;;;;;;;;15.00;13.00;;;;;;;;5025118;28;9656;-82
2020/12/15 05:29:23;;;;;;;;;14.50;13.75;;;;;;;;5026738;28;9629;-84
2020/12/15 05:31:51;;;;;;;;;16.75;16.75;;;;;;;;5021346;28;9592;-83
2020/12/15 05:34:22;;;;;;;;;12.25;10.25;;;;;;;;5025019;28;9800;-82
2020/12/15 05:36:51;;;;;;;;;15.75;12.25;;;;;;;;5027894;28;9880;-82
2020/12/15 05:39:18;;;;;;;;;21.50;17.75;;;;;;;;5027252;28;9647;-81
2020/12/15 05:41:48;;;;;;;;;13.00;13.00;;;;;;;;5034168;28;9713;-83
2020/12/15 05:44:25;;;;;;;;;12.75;12.75;;;;;;;;5028057;28;9724;-82
2020/12/15 05:46:52;;;;;;;;;18.50;17.00;;;;;;;;5030852;28;9726;-81
2020/12/15 05:49:27;;;;;;;;;16.25;16.25;;;;;;;;5026172;28;9735;-83
2020/12/15 05:51:55;;;;;;;;;14.00;14.00;;;;;;;;5026721;28;9807;-81
2020/12/15 05:54:22;;;;;;;;;14.00;13.75;;;;;;;;5025737;28;9781;-82
2020/12/15 05:57:01;;;;;;;;;16.00;16.00;;;;;;;;5029878;28;9869;-80
2020/12/15 05:59:29;;;;;;;;;15.25;15.25;;;;;;;;5023510;28;10039;-81
2020/12/15 06:02:04;;;;;;;;;17.75;14.00;;;;;;;;5021701;28;9816;-80
2020/12/15 06:04:31;;;;;;;;;15.25;15.25;;;;;;;;5021795;28;9745;-80
2020/12/15 06:06:58;;;;;;;;;19.50;18.25;;;;;;;;5026312;28;10491;-79
2020/12/15 06:09:27;;;;;;;;;22.75;22.75;;;;;;;;5020009;28;9823;-81
2020/12/15 06:11:53;;;;;;;;;13.50;12.75;;;;;;;;5026811;28;9821;-81
2020/12/15 06:14:20;;;;;;;;;19.50;17.75;;;;;;;;5022596;28;9630;-82
2020/12/15 06:16:48;;;;;;;;;16.25;16.25;;;;;;;;5022673;28;9796;-84
2020/12/15 06:19:15;;;;;;;;;18.25;18.25;;;;;;;;5033345;28;9757;-81
2020/12/15 06:21:50;;;;;;;;;18.50;14.75;;;;;;;;5023745;28;9710;-80
2020/12/15 06:24:26;;;;;;;;;16.25;14.00;;;;;;;;5029222;28;9641;-81
2020/12/15 06:26:58;;;;;;;;;15.25;13.25;;;;;;;;5028642;28;9703;-84
2020/12/15 06:29:30;;;;;;;;;14.00;12.50;;;;;;;;5026781;28;9569;-83
2020/12/15 06:31:58;;;;;;;;;13.00;13.00;;;;;;;;5030554;28;9704;-80
2020/12/15 06:34:28;;;;;;;;;18.25;17.00;;;;;;;;5028349;28;10236;-80
2020/12/15 06:36:56;;;;;;;;;18.75;15.75;;;;;;;;5025555;28;9795;-79
2020/12/15 06:39:24;;;;;;;;;16.00;14.00;;;;;;;;5042194;28;9752;-80
2020/12/15 06:41:59;;;;;;;;;11.00;11.00;;;;;;;;5028691;28;9661;-74
2020/12/15 06:44:31;;;;;;;;;12.00;12.00;;;;;;;;5032907;28;9563;-74
2020/12/15 06:47:00;;;;;;;;;12.75;12.75;;;;;;;;5027638;28;9720;-74
2020/12/15 06:49:31;;;;;;;;;19.25;15.00;;;;;;;;5035003;28;9769;-74
2020/12/15 06:51:59;;;;;;;;;13.50;11.50;;;;;;;;5029707;28;9618;-74
2020/12/15 06:54:27;;;;;;;;;19.75;19.75;;;;;;;;5035872;28;9606;-74
2020/12/15 06:57:02;;;;;;;;;20.75;20.00;;;;;;;;5029289;28;9628;-73
2020/12/15 06:59:36;;;;;;;;;20.50;17.50;;;;;;;;5029006;28;9827;-73
2020/12/15 07:02:08;;;;;;;;;17.50;17.50;;;;;;;;5024362;28;9826;-74
2020/12/15 07:04:43;;;;;;;;;15.50;15.50;;;;;;;;5021447;28;9739;-73
2020/12/15 07:07:10;;;;;;;;;18.75;17.50;;;;;;;;5020319;28;9565;-73
2020/12/15 07:09:38;;;;;;;;;16.25;14.25;;;;;;;;5022280;28;9654;-73
2020/12/15 07:12:10;;;;;;;;;24.50;18.00;;;;;;;;5018179;28;9682;-74
2020/12/15 07:14:37;;;;;;;;;18.50;17.00;;;;;;;;5021868;28;9750;-75
2020/12/15 07:17:04;;;;;;;;;12.25;12.25;;;;;;;;5020784;28;10493;-75
2020/12/15 07:19:32;;;;;;;;;14.25;14.25;;;;;;;;5022170;28;9629;-75
2020/12/15 07:21:58;;;;;;;;;18.50;16.75;;;;;;;;5023755;28;9713;-76
2020/12/15 07:24:26;;;;;;;;;12.75;12.75;;;;;;;;5020897;28;9812;-75
2020/12/15 07:26:53;;;;;;;;;15.50;15.50;;;;;;;;5032943;28;9579;-76
2020/12/15 07:29:20;;;;;;;;;21.75;20.25;;;;;;;;5025230;28;9972;-78
2020/12/15 07:31:48;;;;;;;;;17.25;14.50;;;;;;;;5032363;28;9768;-76
2020/12/15 07:34:17;;;;;;;;;22.25;20.00;;;;;;;;5024586;28;9566;-76
2020/12/15 07:36:46;;;;;;;;;18.25;15.75;;;;;;;;5024732;28;10427;-75
2020/12/15 07:39:13;;;;;;;;;30.50;27.00;;;;;;;;5025824;28;9496;-76
2020/12/15 07:41:41;;;;;;;;;25.75;23.50;;;;;;;;5025431;28;10082;-75
2020/12/15 07:44:10;;;;;;;;;33.75;31.75;;;;;;;;5023335;28;10728;-76
2020/12/15 07:46:37;;;;;;;;;42.00;38.75;;;;;;;;5023966;28;10153;-76
2020/12/15 07:49:04;;;;;;;;;28.25;26.00;;;;;;;;5026478;28;10312;-76
2020/12/15 07:51:37;;;;;;;;;25.50;24.00;;;;;;;;5024701;28;9641;-76
2020/12/15 07:54:06;;;;;;;;;28.00;25.25;;;;;;;;5024319;28;9650;-75
2020/12/15 07:56:33;;;;;;;;;32.00;29.75;;;;;;;;5025932;28;9775;-76
2020/12/15 07:59:00;;;;;;;;;19.50;19.50;;;;;;;;5025537;28;9941;-76
2020/12/15 08:01:29;;;;;;;;;17.50;17.50;;;;;;;;5025643;28;9567;-77
2020/12/15 08:04:03;;;;;;;;;20.00;19.25;;;;;;;;5034509;28;9587;-76
2020/12/15 08:06:31;;;;;;;;;10.50;10.50;;;;;;;;5016844;28;9575;-76
2020/12/15 08:08:59;;;;;;;;;16.50;16.50;;;;;;;;5024710;28;9567;-76
2020/12/15 08:11:27;;;;;;;;;21.00;21.00;;;;;;;;5024553;28;9524;-76
2020/12/15 08:13:54;;;;;;;;;22.75;21.50;;;;;;;;5025680;28;9545;-75
2020/12/15 08:16:21;;;;;;;;;14.50;13.50;;;;;;;;5024140;28;9637;-76
2020/12/15 08:18:49;;;;;;;;;13.00;13.00;;;;;;;;5024431;28;9502;-74
2020/12/15 08:21:17;;;;;;;;;19.00;15.75;;;;;;;;5022679;28;9494;-74
2020/12/15 08:23:53;;;;;;;;;15.50;13.75;;;;;;;;5028057;28;9543;-76
2020/12/15 08:26:22;;;;;;;;;17.00;17.00;;;;;;;;5028687;28;9545;-76
2020/12/15 08:28:50;;;;;;;;;14.50;12.50;;;;;;;;5026531;28;9598;-76
2020/12/15 08:31:18;;;;;;;;;16.00;14.75;;;;;;;;5025469;28;9581;-76
2020/12/15 08:33:45;;;;;;;;;14.50;14.50;;;;;;;;5033436;28;9721;-76
2020/12/15 08:36:12;;;;;;;;;8.50;8.50;;;;;;;;5032567;28;9738;-74
2020/12/15 08:38:43;;;;;;;;;15.00;13.25;;;;;;;;5025500;28;9576;-76
2020/12/15 08:41:15;;;;;;;;;15.25;13.00;;;;;;;;5028894;28;9755;-76
2020/12/15 08:43:42;;;;;;;;;13.25;12.25;;;;;;;;5030484;28;10610;-74
2020/12/15 08:46:18;;;;;;;;;21.75;21.75;;;;;;;;5036672;28;9726;-75
2020/12/15 08:48:45;;;;;;;;;18.50;15.50;;;;;;;;5037696;28;9771;-75
2020/12/15 08:51:13;;;;;;;;;13.50;13.50;;;;;;;;5030611;28;9828;-74
2020/12/15 08:53:41;;;;;;;;;15.25;15.25;;;;;;;;5030354;28;9514;-74
2020/12/15 08:56:15;;;;;;;;;16.75;14.50;;;;;;;;5027881;28;9554;-75
2020/12/15 08:58:43;;;;;;;;;12.75;10.50;;;;;;;;5025859;28;9417;-73
2020/12/15 09:01:10;;;;;;;;;10.50;8.50;;;;;;;;5023908;28;9498;-77
2020/12/15 09:03:46;;;;;;;;;21.50;19.25;;;;;;;;5022626;28;10419;-76
2020/12/15 09:06:13;;;;;;;;;15.00;13.50;;;;;;;;5026054;28;9757;-76
2020/12/15 09:08:50;;;;;;;;;20.50;11.25;;;;;;;;5024439;28;9710;-76
2020/12/15 09:11:17;;;;;;;;;14.75;9.75;;;;;;;;5029368;28;10511;-76
2020/12/15 09:14:02;;;;;;;;;12.00;9.00;;;;;;;;5024874;28;9645;-75
2020/12/15 09:16:32;;;;;;;;;40.75;37.25;;;;;;;;5024975;28;9505;-76
2020/12/15 09:19:10;;;;;;;;;14.25;14.25;;;;;;;;5023270;28;10215;-75
2020/12/15 09:21:37;;;;;;;;;15.00;13.25;;;;;;;;5023914;28;9587;-77
2020/12/15 09:24:04;;;;;;;;;14.25;12.50;;;;;;;;5028848;28;9481;-75
2020/12/15 09:26:31;;;;;;;;;9.50;9.50;;;;;;;;5024894;28;9504;-75
2020/12/15 09:29:07;;;;;;;;;13.00;13.00;;;;;;;;5037605;28;9503;-76
2020/12/15 09:31:34;;;;;;;;;16.75;15.75;;;;;;;;5037571;28;9612;-75
2020/12/15 09:34:02;;;;;;;;;12.00;12.00;;;;;;;;5036151;28;9465;-76
2020/12/15 09:36:29;;;;;;;;;12.00;8.67;;;;;;;;5034829;28;9339;-76
2020/12/15 09:38:56;;;;;;;;;7.33;7.00;;;;;;;;5038112;28;9435;-74
2020/12/15 09:41:23;;;;;;;;;7.00;7.00;;;;;;;;5038904;28;9359;-75
2020/12/15 09:43:50;;;;;;;;;4.00;4.00;;;;;;;;5036565;28;9110;-76
2020/12/15 09:46:17;;;;;;;;;7.33;6.00;;;;;;;;5036768;28;9290;-75
2020/12/15 09:48:44;;;;;;;;;4.00;4.00;;;;;;;;5026698;28;9201;-74
2020/12/15 09:51:13;;;;;;;;;4.00;4.00;;;;;;;;5036239;28;9310;-76
2020/12/15 09:53:39;;;;;;;;;5.33;5.33;;;;;;;;5032361;28;9179;-76
2020/12/15 09:56:06;;;;;;;;;5.67;5.67;;;;;;;;5041630;28;9236;-75
2020/12/15 09:58:33;;;;;;;;;5.00;4.00;;;;;;;;5042164;28;9451;-75
2020/12/15 10:01:00;;;;;;;;;4.00;4.00;;;;;;;;5033358;28;9212;-74
2020/12/15 10:03:27;;;;;;;;;6.00;4.00;;;;;;;;5037919;28;9249;-74
2020/12/15 10:05:54;;;;;;;;;10.00;10.00;;;;;;;;5035598;28;9197;-74
2020/12/15 10:08:22;;;;;;;;;8.00;8.00;;;;;;;;5031776;28;9471;-74
2020/12/15 10:10:49;;;;;;;;;8.67;8.67;;;;;;;;5024180;28;9341;-74
2020/12/15 10:13:16;;;;;;;;;8.00;8.00;;;;;;;;5026080;28;9546;-74
2020/12/15 10:15:44;;;;;;;;;5.00;5.00;;;;;;;;5026340;28;9658;-75
2020/12/15 10:18:12;;;;;;;;;8.00;7.00;;;;;;;;5029051;28;9213;-75
2020/12/15 10:20:39;;;;;;;;;8.33;8.33;;;;;;;;5023102;28;9949;-74
2020/12/15 10:23:06;;;;;;;;;8.00;8.00;;;;;;;;5032130;28;10083;-74
2020/12/15 10:25:34;;;;;;;;;3.00;2.00;;;;;;;;5023394;28;9237;-75
2020/12/15 10:28:01;;;;;;;;;6.33;5.67;;;;;;;;5020907;28;9741;-74
2020/12/15 10:30:28;;;;;;;;;8.00;8.00;;;;;;;;5024694;28;10531;-74
2020/12/15 10:32:54;;;;;;;;;7.00;7.00;;;;;;;;5033206;28;9098;-74
2020/12/15 10:35:21;;;;;;;;;8.00;8.00;;;;;;;;5027919;28;9932;-74
2020/12/15 10:37:47;;;;;;;;;8.67;8.67;;;;;;;;5032757;28;9332;-74
2020/12/15 10:40:14;;;;;;;;;10.00;10.00;;;;;;;;5018527;28;9117;-74
2020/12/15 10:42:43;;;;;;;;;6.67;6.67;;;;;;;;5031727;28;9282;-74
2020/12/15 10:45:11;;;;;;;;;10.00;10.00;;;;;;;;5022469;28;9365;-73
2020/12/15 10:47:37;;;;;;;;;7.00;7.00;;;;;;;;5024171;28;9190;-74
2020/12/15 10:50:05;;;;;;;;;8.00;8.00;;;;;;;;5029756;28;9211;-74
2020/12/15 10:52:31;;;;;;;;;8.00;7.00;;;;;;;;5023206;28;9405;-73
2020/12/15 10:54:58;;;;;;;;;7.67;7.67;;;;;;;;5027285;28;9132;-74
2020/12/15 10:57:25;;;;;;;;;8.33;7.67;;;;;;;;5025337;28;9124;-74
2020/12/15 10:59:53;;;;;;;;;9.67;9.67;;;;;;;;5035901;28;9343;-74
2020/12/15 11:02:20;;;;;;;;;9.33;9.33;;;;;;;;5034703;28;9305;-74
2020/12/15 11:04:46;;;;;;;;;9.00;7.00;;;;;;;;5038801;28;9098;-75
2020/12/15 11:07:13;;;;;;;;;7.00;7.00;;;;;;;;5027932;28;9934;-74
2020/12/15 11:09:40;;;;;;;;;9.33;8.67;;;;;;;;5027670;28;9102;-74
2020/12/15 11:12:07;;;;;;;;;8.00;8.00;;;;;;;;5031039;28;9074;-74
2020/12/15 11:14:34;;;;;;;;;5.50;5.50;;;;;;;;5027536;28;8964;-75
2020/12/15 11:17:02;;;;;;;;;8.00;8.00;;;;;;;;5041823;28;8860;-75
2020/12/15 11:19:29;;;;;;;;;6.25;5.00;;;;;;;;5035599;28;9016;-75
2020/12/15 11:21:56;;;;;;;;;6.00;6.00;;;;;;;;5031888;28;8927;-76
2020/12/15 11:24:23;;;;;;;;;8.00;6.00;;;;;;;;5028292;28;8840;-73
2020/12/15 11:26:51;;;;;;;;;5.25;5.25;;;;;;;;5031175;28;8852;-74
2020/12/15 11:29:18;;;;;;;;;5.50;5.50;;;;;;;;5028429;28;8883;-75
2020/12/15 11:31:50;;;;;;;;;5.00;5.00;;;;;;;;5021673;28;9550;-76
2020/12/15 11:34:17;;;;;;;;;5.50;5.50;;;;;;;;5037980;28;8911;-77
2020/12/15 11:36:44;;;;;;;;;7.75;7.75;;;;;;;;5034135;28;8894;-76
2020/12/15 11:39:12;;;;;;;;;7.75;6.75;;;;;;;;5034633;28;8920;-76
2020/12/15 11:41:39;;;;;;;;;6.00;6.00;;;;;;;;5037180;28;8864;-75
2020/12/15 11:44:06;;;;;;;;;3.00;3.00;;;;;;;;5040695;28;9599;-76
2020/12/15 11:46:33;;;;;;;;;6.25;6.25;;;;;;;;5028069;28;8836;-75
2020/12/15 11:49:00;;;;;;;;;6.25;5.00;;;;;;;;5024764;28;8860;-76
2020/12/15 11:51:27;;;;;;;;;3.50;2.50;;;;;;;;5024010;28;8852;-75
2020/12/15 11:53:54;;;;;;;;;3.00;3.00;;;;;;;;5021203;28;8856;-77
2020/12/15 11:56:21;;;;;;;;;3.00;3.00;;;;;;;;5024955;28;8871;-75
2020/12/15 11:58:48;;;;;;;;;3.00;3.00;;;;;;;;5024817;28;8887;-76
2020/12/15 12:01:15;;;;;;;;;5.00;4.00;;;;;;;;5024724;28;8808;-75
2020/12/15 12:03:42;;;;;;;;;3.00;3.00;;;;;;;;5024210;28;8937;-75
2020/12/15 12:06:09;;;;;;;;;3.00;3.00;;;;;;;;5056581;28;9614;-75
2020/12/15 12:08:37;;;;;;;;;3.25;3.25;;;;;;;;5025011;28;8882;-76
2020/12/15 12:11:04;;;;;;;;;2.00;2.00;;;;;;;;5023837;28;8860;-75
2020/12/15 12:13:30;;;;;;;;;2.25;2.25;;;;;;;;5024622;28;8930;-75
2020/12/15 12:16:00;;;;;;;;;2.50;2.50;;;;;;;;5023475;28;8872;-75
2020/12/15 12:18:27;;;;;;;;;3.50;3.00;;;;;;;;5025928;28;8856;-72
2020/12/15 12:20:54;;;;;;;;;2.25;2.25;;;;;;;;5021480;28;8888;-72
2020/12/15 12:23:21;;;;;;;;;4.50;3.75;;;;;;;;5028434;28;8870;-72
2020/12/15 12:25:49;;;;;;;;;5.00;5.00;;;;;;;;5027990;28;8843;-75
2020/12/15 12:28:16;;;;;;;;;2.50;1.25;;;;;;;;5032877;28;8889;-72
2020/12/15 12:30:42;;;;;;;;;1.50;1.50;;;;;;;;5026884;28;8820;-73
2020/12/15 12:33:09;;;;;;;;;1.00;1.00;;;;;;;;5025826;28;8881;-73
2020/12/15 12:35:36;;;;;;;;;2.00;2.00;;;;;;;;5031286;28;8986;-73
2020/12/15 12:38:04;;;;;;;;;2.00;1.00;;;;;;;;5024113;28;9410;-72
2020/12/15 12:40:30;;;;;;;;;1.25;1.25;;;;;;;;5029808;28;8882;-72
2020/12/15 12:43:02;;;;;;;;;0.00;0.00;;;;;;;;5027544;28;9663;-72
2020/12/15 12:45:29;;;;;;;;;2.00;1.00;;;;;;;;5024612;28;8994;-71
2020/12/15 12:47:55;;;;;;;;;1.00;1.00;;;;;;;;5025107;28;8878;-72
2020/12/15 12:50:22;;;;;;;;;3.25;1.50;;;;;;;;5028993;28;8869;-73
2020/12/15 12:52:49;;;;;;;;;2.00;1.00;;;;;;;;5040176;28;8873;-72
2020/12/15 12:55:16;;;;;;;;;3.00;1.50;;;;;;;;5032702;28;8873;-72
2020/12/15 12:57:43;;;;;;;;;2.25;1.00;;;;;;;;5032867;28;8973;-71
2020/12/15 13:00:11;;;;;;;;;1.00;1.00;;;;;;;;5025541;28;8892;-72
2020/12/15 13:02:40;;;;;;;;;2.25;1.00;;;;;;;;5023729;28;9610;-72
2020/12/15 13:05:07;;;;;;;;;2.00;2.00;;;;;;;;5017910;28;8855;-72
2020/12/15 13:07:33;;;;;;;;;0.50;0.50;;;;;;;;5030101;28;8862;-73
2020/12/15 13:10:00;;;;;;;;;0.75;0.75;;;;;;;;5027314;28;9677;-72
2020/12/15 13:12:27;;;;;;;;;1.75;1.00;;;;;;;;5024394;28;8969;-72
2020/12/15 13:14:56;;;;;;;;;0.50;0.00;;;;;;;;5023781;28;8898;-72
2020/12/15 13:17:24;;;;;;;;;1.25;1.25;;;;;;;;5026018;28;9664;-72
2020/12/15 13:19:51;;;;;;;;;2.25;0.00;;;;;;;;5025766;28;8913;-72
2020/12/15 13:22:18;;;;;;;;;0.00;0.00;;;;;;;;5031565;28;8875;-71
2020/12/15 13:24:45;;;;;;;;;0.25;0.00;;;;;;;;5024625;28;8857;-71
2020/12/15 13:27:12;;;;;;;;;3.00;0.25;;;;;;;;5024152;28;8874;-71
2020/12/15 13:29:39;;;;;;;;;1.00;1.00;;;;;;;;5025214;28;9704;-71
2020/12/15 13:32:05;;;;;;;;;0.00;0.00;;;;;;;;5025046;28;8842;-71
2020/12/15 13:34:33;;;;;;;;;0.50;0.50;;;;;;;;5020628;28;8911;-71
2020/12/15 13:37:00;;;;;;;;;0.00;0.00;;;;;;;;5035716;28;9513;-71
2020/12/15 13:39:27;;;;;;;;;0.75;0.75;;;;;;;;5029203;28;9700;-71
2020/12/15 13:41:54;;;;;;;;;0.75;0.75;;;;;;;;5027965;28;8883;-71
2020/12/15 13:44:20;;;;;;;;;1.00;1.00;;;;;;;;5023665;28;8864;-71
2020/12/15 13:46:47;;;;;;;;;1.00;1.00;;;;;;;;5023058;28;8864;-71
2020/12/15 13:49:14;;;;;;;;;1.75;0.00;;;;;;;;5023337;28;8868;-72
2020/12/15 13:51:42;;;;;;;;;1.25;0.75;;;;;;;;5021775;28;8872;-72
2020/12/15 13:54:08;;;;;;;;;0.00;0.00;;;;;;;;5022975;28;8900;-72
2020/12/15 13:56:36;;;;;;;;;0.00;0.00;;;;;;;;5023274;28;8856;-72
2020/12/15 13:59:03;;;;;;;;;0.50;0.50;;;;;;;;5021647;28;9046;-71
2020/12/15 14:01:30;;;;;;;;;1.50;1.50;;;;;;;;5023078;28;9626;-71
2020/12/15 14:03:56;;;;;;;;;0.00;0.00;;;;;;;;5012999;28;8860;-73
2020/12/15 14:06:23;;;;;;;;;1.00;1.00;;;;;;;;5023108;28;8867;-72
2020/12/15 14:08:51;;;;;;;;;2.00;0.00;;;;;;;;5027319;28;8880;-72
2020/12/15 14:11:18;;;;;;;;;0.00;0.00;;;;;;;;5027073;28;8876;-73
2020/12/15 14:13:45;;;;;;;;;0.25;0.25;;;;;;;;5025231;28;8885;-73
2020/12/15 14:16:12;;;;;;;;;2.50;1.00;;;;;;;;5021352;28;8860;-73
2020/12/15 14:18:39;;;;;;;;;1.00;1.00;;;;;;;;5021992;28;8859;-72
2020/12/15 14:21:06;;;;;;;;;0.50;0.50;;;;;;;;5023127;28;9660;-72
2020/12/15 14:23:33;;;;;;;;;1.50;0.00;;;;;;;;5025424;28;8852;-73
2020/12/15 14:26:05;;;;;;;;;2.25;1.00;;;;;;;;5022735;28;9467;-73
2020/12/15 14:28:32;;;;;;;;;0.00;0.00;;;;;;;;5026274;28;8953;-72
2020/12/15 14:30:59;;;;;;;;;1.00;1.00;;;;;;;;5023822;28;9550;-73
2020/12/15 14:33:26;;;;;;;;;1.50;1.50;;;;;;;;5022997;28;8856;-73
2020/12/15 14:35:54;;;;;;;;;1.50;1.50;;;;;;;;5022535;28;8848;-73
2020/12/15 14:38:21;;;;;;;;;0.00;0.00;;;;;;;;5025993;28;8912;-73
2020/12/15 14:40:48;;;;;;;;;3.00;1.00;;;;;;;;5033606;28;8872;-73
2020/12/15 14:43:16;;;;;;;;;1.00;1.00;;;;;;;;5018536;28;8880;-73
2020/12/15 14:45:43;;;;;;;;;1.25;0.00;;;;;;;;5025762;28;8884;-74
2020/12/15 14:48:10;;;;;;;;;1.50;1.50;;;;;;;;5019405;28;8888;-73